Time;durP1;ratioP1;P1;durP2;ratioP2;P2;SDS_P1;SDS_P2;PMS_P1;PMS_P2;Temp;Humidity;BMP_temperature;BMP_pressure;BME280_temperature;BME280_humidity;BME280_pressure;Samples;Min_cycle;Max_cycle;Signal;HPM_P1;HPM_P2
2022/07/02 00:04:21;;;;;;;0.57;0.50;;;;;;;18.89;86.71;101818.81;20889041;28;20041;-77
2022/07/02 00:14:23;;;;;;;0.63;0.40;;;;;;;18.76;86.43;101810.84;20885929;28;20136;-76
2022/07/02 00:24:25;;;;;;;0.50;0.50;;;;;;;18.87;86.39;101810.00;20884295;28;20485;-77
2022/07/02 00:34:28;;;;;;;1.67;0.70;;;;;;;18.88;86.49;101813.56;20886102;28;20055;-77
2022/07/02 00:44:31;;;;;;;0.93;0.65;;;;;;;18.88;86.14;101810.88;20882744;28;20136;-77
2022/07/02 00:54:35;;;;;;;1.20;0.73;;;;;;;18.86;86.09;101816.38;20866440;28;20401;-76
2022/07/02 01:04:39;;;;;;;1.45;0.63;;;;;;;18.87;85.95;101819.94;20884617;28;20068;-77
2022/07/02 01:14:41;;;;;;;1.03;0.63;;;;;;;18.82;86.12;101809.50;20880989;28;20048;-76
2022/07/02 01:24:45;;;;;;;1.35;0.70;;;;;;;18.84;85.52;101821.91;20881998;28;20048;-77
2022/07/02 01:34:52;;;;;;;0.70;0.55;;;;;;;18.78;85.53;101792.72;20882138;28;20049;-76
2022/07/02 01:44:54;;;;;;;0.63;0.55;;;;;;;18.83;85.51;101798.59;20880717;28;20052;-76
2022/07/02 01:54:56;;;;;;;0.60;0.50;;;;;;;18.73;85.59;101781.41;20891308;28;20056;-76
2022/07/02 02:04:57;;;;;;;0.50;0.50;;;;;;;18.84;85.41;101802.16;20896237;28;20523;-76
2022/07/02 02:14:59;;;;;;;1.55;0.70;;;;;;;18.76;85.18;101791.09;20896220;28;20041;-77
2022/07/02 02:25:00;;;;;;;0.75;0.52;;;;;;;18.76;84.99;101786.56;20895500;28;20060;-77
2022/07/02 02:35:04;;;;;;;1.30;0.55;;;;;;;18.81;84.74;101794.28;20893652;28;20400;-76
2022/07/02 02:45:06;;;;;;;1.55;0.60;;;;;;;18.81;84.95;101794.28;20893532;28;20037;-77
2022/07/02 02:55:08;;;;;;;1.05;0.60;;;;;;;18.80;84.84;101785.34;20893631;28;20052;-77
2022/07/02 03:05:10;;;;;;;1.17;0.65;;;;;;;18.80;84.69;101796.16;20892493;28;20053;-77
2022/07/02 03:15:11;;;;;;;0.55;0.52;;;;;;;18.79;84.69;101804.34;20892831;28;20044;-76
2022/07/02 03:25:13;;;;;;;0.50;0.50;;;;;;;18.73;84.69;101792.19;20888373;28;20072;-78
2022/07/02 03:35:14;;;;;;;1.27;0.80;;;;;;;18.78;84.23;101799.94;20890719;28;20052;-78
2022/07/02 03:45:16;;;;;;;1.08;0.70;;;;;;;18.44;84.21;101745.94;20877137;28;20045;-79
2022/07/02 03:55:18;;;;;;;1.60;0.80;;;;;;;18.79;84.29;101796.25;20874908;28;20057;-78
2022/07/02 04:05:19;;;;;;;1.40;0.77;;;;;;;18.78;84.37;101822.38;20875323;28;20075;-78
2022/07/02 04:15:21;;;;;;;1.55;0.73;;;;;;;18.73;84.16;101815.63;20875635;28;20445;-79
2022/07/02 04:25:23;;;;;;;1.20;0.80;;;;;;;18.69;84.02;101823.97;20820061;28;20118;-78
2022/07/02 04:35:24;;;;;;;1.80;0.88;;;;;;;18.76;83.88;101829.72;20789098;28;20059;-78
2022/07/02 04:45:26;;;;;;;1.17;0.77;;;;;;;18.76;84.12;101818.06;20795059;28;20111;-79
2022/07/02 04:55:27;;;;;;;0.70;0.70;;;;;;;18.76;83.95;101824.31;20780116;28;20107;-78
2022/07/02 05:05:29;;;;;;;1.70;0.70;;;;;;;18.60;83.55;101803.09;20789587;28;20068;-78
2022/07/02 05:15:31;;;;;;;0.93;0.70;;;;;;;18.76;83.63;101834.25;20854155;28;20061;-76
2022/07/02 05:25:32;;;;;;;2.78;0.90;;;;;;;18.76;84.08;101821.63;20852674;28;20053;-77
2022/07/02 05:35:34;;;;;;;0.80;0.80;;;;;;;18.83;85.49;101839.06;20848490;28;20045;-76
2022/07/02 05:45:35;;;;;;;1.27;0.90;;;;;;;18.80;86.57;101839.31;20853209;28;20048;-77
2022/07/02 05:55:42;;;;;;;4.07;1.20;;;;;;;18.83;88.74;101862.47;20854548;28;20052;-76
2022/07/02 06:16:03;;;;;;;1.90;1.02;;;;;;;18.80;89.09;101873.50;20841673;28;20390;-76
2022/07/02 06:26:05;;;;;;;2.67;0.98;;;;;;;18.79;89.08;101885.28;20857597;28;20044;-76
2022/07/02 06:36:11;;;;;;;3.08;0.80;;;;;;;18.78;89.16;101878.16;20822313;28;20629;-76
2022/07/02 06:46:13;;;;;;;1.60;0.77;;;;;;;18.78;88.97;101880.88;20813699;28;20068;-76
2022/07/02 06:56:14;;;;;;;1.73;0.90;;;;;;;18.77;88.92;101892.63;20849321;28;20056;-76
2022/07/02 07:06:17;;;;;;;1.92;0.63;;;;;;;18.55;89.12;101861.91;20863665;28;20049;-76
2022/07/02 07:16:18;;;;;;;1.48;0.80;;;;;;;18.78;89.14;101905.16;20799298;28;20065;-76
2022/07/02 07:26:20;;;;;;;2.28;1.05;;;;;;;18.87;88.45;101904.44;20840243;28;20049;-76
2022/07/02 07:36:22;;;;;;;2.15;0.80;;;;;;;18.96;87.88;101911.81;20864293;28;20049;-76
2022/07/02 07:46:24;;;;;;;1.05;0.63;;;;;;;19.03;87.45;101916.78;20788394;28;20045;-77
2022/07/02 07:56:26;;;;;;;3.03;0.70;;;;;;;19.08;87.27;101915.44;20791345;28;20617;-76
2022/07/02 08:06:27;;;;;;;0.52;0.50;;;;;;;19.13;86.80;101906.97;20792415;28;20178;-76
2022/07/02 08:16:29;;;;;;;0.77;0.77;;;;;;;19.16;86.76;101917.53;20805606;28;20850;-76
2022/07/02 08:26:31;;;;;;;1.40;0.70;;;;;;;19.15;86.74;101917.66;20804857;28;20046;-77
2022/07/02 08:36:36;;;;;;;1.70;0.55;;;;;;;19.13;86.62;101906.97;20768970;28;20053;-76
2022/07/02 08:46:39;;;;;;;2.33;0.70;;;;;;;19.03;86.24;101889.81;20772357;28;20072;-76
2022/07/02 08:56:41;;;;;;;0.70;0.60;;;;;;;19.15;86.12;101909.53;20769914;28;20053;-76
2022/07/02 09:06:44;;;;;;;1.02;0.50;;;;;;;19.13;86.33;101898.88;20809862;28;20053;-76
2022/07/02 09:16:50;;;;;;;0.95;0.52;;;;;;;19.09;86.46;101892.84;20827119;28;20563;-76
2022/07/02 09:27:02;;;;;;;1.52;0.60;;;;;;;19.08;86.55;101887.59;20813479;28;20080;-75
2022/07/02 09:37:17;;;;;;;1.45;0.70;;;;;;;19.07;86.38;101891.28;20765346;28;20045;-76
2022/07/02 09:47:36;;;;;;;0.50;0.50;;;;;;;19.05;86.23;101890.53;20830735;28;20073;-76
2022/07/02 09:57:48;;;;;;;0.32;0.30;;;;;;;19.03;85.87;101890.66;20863898;28;20260;-76
2022/07/02 10:07:52;;;;;;;0.73;0.50;;;;;;;18.91;85.58;101849.25;20859997;28;20405;-75
2022/07/02 10:17:55;;;;;;;0.60;0.43;;;;;;;18.92;85.51;101858.22;20872354;28;20098;-76
2022/07/02 10:27:57;;;;;;;0.70;0.45;;;;;;;18.99;85.22;101862.19;20850866;28;20555;-76
2022/07/02 10:38:00;;;;;;;0.95;0.50;;;;;;;18.99;85.30;101863.03;20840616;28;21156;-75
2022/07/02 10:48:03;;;;;;;0.50;0.28;;;;;;;18.98;85.16;101858.59;20832238;28;20402;-76
2022/07/02 10:58:07;;;;;;;0.77;0.50;;;;;;;18.88;85.07;101846.78;20777252;28;20073;-75
2022/07/02 11:08:31;;;;;;;0.40;0.40;;;;;;;18.98;84.88;101852.38;20789563;28;20049;-76
2022/07/02 11:18:34;;;;;;;0.85;0.40;;;;;;;18.99;85.14;101846.84;20786601;28;20060;-75
2022/07/02 11:28:36;;;;;;;0.40;0.40;;;;;;;18.83;85.27;101803.13;20851121;28;20057;-77
2022/07/02 11:38:41;;;;;;;0.88;0.40;;;;;;;18.86;84.95;101791.25;20829806;28;20488;-76
2022/07/02 11:48:42;;;;;;;0.50;0.40;;;;;;;18.98;84.76;101811.88;20852596;28;20055;-76
2022/07/02 11:58:48;;;;;;;0.77;0.50;;;;;;;18.85;84.91;101795.78;20852974;28;20055;-77
2022/07/02 12:08:52;;;;;;;0.45;0.40;;;;;;;18.95;84.86;101802.16;20844241;28;20404;-76
2022/07/02 12:19:02;;;;;;;0.20;0.20;;;;;;;18.77;85.43;101800.91;20827571;28;20062;-76
2022/07/02 12:39:41;;;;;;;1.25;0.40;;;;;;;18.82;85.09;101778.00;20852027;28;20140;-76
2022/07/02 12:49:51;;;;;;;0.30;0.30;;;;;;;18.43;85.01;101711.84;20872082;28;20072;-77
2022/07/02 12:59:53;;;;;;;0.70;0.52;;;;;;;18.84;85.08;101777.88;20802213;28;20049;-76
2022/07/02 13:09:55;;;;;;;0.88;0.50;;;;;;;18.94;84.80;101784.25;20816426;28;20524;-76
2022/07/02 13:19:56;;;;;;;1.33;0.60;;;;;;;18.94;85.07;101786.09;20770380;28;20193;-76
2022/07/02 13:29:58;;;;;;;1.25;0.52;;;;;;;18.90;85.16;101760.34;20793304;28;20110;-76
2022/07/02 13:40:00;;;;;;;0.80;0.50;;;;;;;18.94;85.01;101748.31;20863821;28;20551;-76
2022/07/02 13:50:05;;;;;;;1.00;0.68;;;;;;;18.94;84.95;101746.47;20855523;28;20186;-76
2022/07/02 14:00:08;;;;;;;0.73;0.40;;;;;;;18.94;85.11;101746.47;20874082;28;20860;-76
2022/07/02 14:10:13;;;;;;;1.25;0.65;;;;;;;18.86;85.01;101713.00;20880824;28;20147;-76
2022/07/02 14:20:14;;;;;;;1.45;0.70;;;;;;;18.94;84.85;101724.88;20875887;28;20509;-76
2022/07/02 14:30:36;;;;;;;0.45;0.38;;;;;;;18.94;85.40;101724.03;20883052;28;20505;-76
2022/07/02 14:40:38;;;;;;;0.80;0.60;;;;;;;18.95;85.93;101710.41;20873756;28;20044;-76
2022/07/02 14:50:40;;;;;;;4.53;0.65;;;;;;;18.95;86.42;101706.88;20823614;28;20110;-76
2022/07/02 15:00:42;;;;;;;0.93;0.40;;;;;;;18.95;86.63;101709.56;20792182;28;20502;-77
2022/07/02 15:10:44;;;;;;;1.25;0.50;;;;;;;18.94;86.44;101703.28;20783113;28;20045;-78
2022/07/02 15:20:47;;;;;;;2.38;0.60;;;;;;;18.95;86.44;101687.97;20782209;28;20044;-77
2022/07/02 15:30:51;;;;;;;0.75;0.57;;;;;;;18.77;86.26;101650.69;20777639;28;20053;-78
2022/07/02 15:40:53;;;;;;;1.07;0.50;;;;;;;18.94;86.49;101668.22;20786863;28;20045;-77
2022/07/02 15:51:09;;;;;;;1.00;0.55;;;;;;;18.93;86.42;101657.56;20781345;28;20045;-76
2022/07/02 16:01:12;;;;;;;3.47;0.88;;;;;;;18.80;86.36;101617.22;20843585;28;20052;-76
2022/07/02 16:11:15;;;;;;;1.00;0.60;;;;;;;18.94;86.44;101635.84;20849017;28;20414;-76
2022/07/02 16:21:16;;;;;;;2.10;0.50;;;;;;;18.95;86.55;101634.03;20843067;28;20095;-76
2022/07/02 16:31:20;;;;;;;0.70;0.60;;;;;;;18.94;86.63;101622.34;20857071;28;20068;-76
2022/07/02 16:41:22;;;;;;;0.90;0.55;;;;;;;18.94;86.68;101614.25;20867700;28;20057;-76
2022/07/02 16:51:27;;;;;;;1.08;0.73;;;;;;;18.94;86.68;101606.16;20859427;28;20158;-77
2022/07/02 17:01:31;;;;;;;0.73;0.70;;;;;;;18.89;86.62;101591.34;20861645;28;20128;-76
2022/07/02 17:11:33;;;;;;;0.65;0.50;;;;;;;18.90;86.62;101577.72;20857415;28;20056;-75
2022/07/02 17:21:35;;;;;;;1.58;0.50;;;;;;;19.09;86.53;101587.03;20860354;28;20071;-75
2022/07/02 17:31:38;;;;;;;2.90;0.85;;;;;;;19.02;86.35;101573.19;20879886;28;20513;-75
2022/07/02 17:41:40;;;;;;;2.03;0.60;;;;;;;19.05;86.21;101562.13;20875739;28;20524;-75
2022/07/02 17:51:42;;;;;;;1.10;0.57;;;;;;;19.11;86.31;101568.88;20891376;28;20044;-75
2022/07/02 18:01:43;;;;;;;0.93;0.50;;;;;;;19.10;86.17;101561.78;20915293;28;20139;-75
2022/07/02 18:11:45;;;;;;;3.03;1.05;;;;;;;18.95;86.24;101536.88;20962934;28;20048;-75
2022/07/02 18:21:47;;;;;;;1.73;0.60;;;;;;;19.06;86.38;101544.97;20876599;28;20071;-75
2022/07/02 18:31:48;;;;;;;3.15;0.70;;;;;;;19.11;85.62;101531.09;20875767;28;20037;-75
2022/07/02 18:41:50;;;;;;;2.20;0.70;;;;;;;19.08;85.08;101525.97;20912269;28;20056;-75
2022/07/02 18:51:51;;;;;;;2.35;0.73;;;;;;;19.17;85.05;101535.09;20892257;28;20045;-75
2022/07/02 19:01:54;;;;;;;1.58;0.68;;;;;;;19.18;84.83;101532.28;20892751;28;20065;-75
2022/07/02 19:11:55;;;;;;;1.10;0.70;;;;;;;19.00;84.68;101491.50;20881392;28;20413;-75
2022/07/02 19:21:57;;;;;;;1.13;0.55;;;;;;;19.08;84.78;101517.88;20903161;28;20045;-75
2022/07/02 19:31:59;;;;;;;0.70;0.70;;;;;;;19.22;84.99;101528.34;20879745;28;20089;-74
2022/07/02 19:42:01;;;;;;;2.25;0.88;;;;;;;19.17;86.06;101514.38;20885251;28;20110;-74
2022/07/02 19:52:03;;;;;;;0.80;0.68;;;;;;;19.21;86.87;101523.94;20902459;28;20051;-75
2022/07/02 20:02:04;;;;;;;1.50;0.80;;;;;;;19.23;87.00;101519.25;20859462;28;20041;-75
2022/07/02 20:12:07;;;;;;;0.93;0.60;;;;;;;19.25;87.11;101519.97;20885271;28;20228;-74
2022/07/02 20:22:08;;;;;;;1.15;0.60;;;;;;;19.24;87.48;101510.16;20899112;28;20040;-75
2022/07/02 20:32:10;;;;;;;0.50;0.50;;;;;;;19.03;87.12;101483.16;20799468;28;20045;-75
2022/07/02 20:42:12;;;;;;;1.35;0.98;;;;;;;19.10;87.52;101497.00;20864451;28;20455;-76
2022/07/02 20:52:13;;;;;;;1.98;0.65;;;;;;;19.22;87.66;101522.94;20883841;28;20075;-76
2022/07/02 21:02:15;;;;;;;2.08;0.60;;;;;;;19.19;87.80;101528.59;20874010;28;20045;-76
2022/07/02 21:12:17;;;;;;;0.98;0.60;;;;;;;19.05;87.73;101516.25;20879825;28;20053;-77
2022/07/02 21:22:21;;;;;;;1.45;0.60;;;;;;;19.10;88.04;101510.50;20879554;28;20079;-77
2022/07/02 21:32:23;;;;;;;0.98;0.65;;;;;;;18.99;88.11;101520.31;20879051;28;20045;-77
2022/07/02 21:42:25;;;;;;;0.88;0.60;;;;;;;18.85;87.99;101477.44;20880919;28;20072;-76
2022/07/02 21:52:26;;;;;;;0.60;0.60;;;;;;;19.11;88.05;101514.91;20880877;28;20053;-77
2022/07/02 22:02:28;;;;;;;0.50;0.50;;;;;;;19.11;88.13;101504.09;20880119;28;20049;-77
2022/07/02 22:12:28;;;;;;;0.77;0.60;;;;;;;19.10;88.01;101497.00;20874991;28;20041;-77
2022/07/02 22:22:30;;;;;;;1.00;0.90;;;;;;;19.09;88.28;101485.34;20893968;28;20040;-76
2022/07/02 22:32:32;;;;;;;0.50;0.50;;;;;;;18.85;88.23;101445.06;20877098;28;20136;-77
2022/07/02 22:42:33;;;;;;;1.17;0.52;;;;;;;19.08;88.17;101480.91;20894577;28;20049;-77
2022/07/02 22:52:35;;;;;;;0.70;0.63;;;;;;;19.09;88.34;101489.88;20893590;28;20087;-76
2022/07/02 23:02:37;;;;;;;0.73;0.70;;;;;;;18.91;88.41;101459.88;20892865;28;20053;-77
2022/07/02 23:12:38;;;;;;;0.60;0.60;;;;;;;19.07;88.45;101481.91;20890482;28;20049;-76
2022/07/02 23:22:40;;;;;;;0.75;0.70;;;;;;;19.07;88.76;101467.56;20890567;28;20057;-77
2022/07/02 23:32:41;;;;;;;1.20;0.75;;;;;;;18.20;88.63;101315.66;20872146;28;20045;-77
2022/07/02 23:42:43;;;;;;;1.00;0.60;;;;;;;19.06;88.75;101453.22;20889440;28;20590;-77
2022/07/02 23:52:45;;;;;;;0.75;0.68;;;;;;;18.82;88.60;101426.44;20888673;28;20565;-78
